Time;durP1;ratioP1;P1;durP2;ratioP2;P2;SDS_P1;SDS_P2;PMS_P1;PMS_P2;Temp;Humidity;BMP_temperature;BMP_pressure;BME280_temperature;BME280_humidity;BME280_pressure;Samples;Min_cycle;Max_cycle;Signal;HPM_P1;HPM_P2
2023/09/27 00:02:12;;;;;;;11.88;8.20;;;;;;;22.58;52.00;102076.69;4986260;28;20050;-36
2023/09/27 00:04:38;;;;;;;13.25;8.88;;;;;;;22.57;52.16;102092.06;4974843;28;20360;-35
2023/09/27 00:07:06;;;;;;;13.77;8.40;;;;;;;22.55;52.29;102085.97;4982093;28;20336;-35
2023/09/27 00:09:34;;;;;;;11.68;7.80;;;;;;;22.53;51.92;102085.28;4986756;28;20177;-36
2023/09/27 00:12:05;;;;;;;11.23;7.82;;;;;;;22.53;52.23;102077.16;4982310;28;20449;-36
2023/09/27 00:14:32;;;;;;;12.45;7.95;;;;;;;22.51;52.25;102081.84;4980592;28;20105;-37
2023/09/27 00:16:58;;;;;;;13.98;8.77;;;;;;;22.51;52.24;102081.00;4982768;28;20133;-35
2023/09/27 00:19:25;;;;;;;12.90;8.05;;;;;;;22.49;52.08;102078.47;4983137;28;20073;-35
2023/09/27 00:21:52;;;;;;;12.15;7.95;;;;;;;22.50;52.15;102087.41;4981616;28;20104;-35
2023/09/27 00:24:19;;;;;;;10.63;7.75;;;;;;;22.47;52.63;102083.16;4978681;28;20054;-35
2023/09/27 00:26:45;;;;;;;12.02;7.95;;;;;;;22.46;52.08;102080.63;4978292;28;20626;-35
2023/09/27 00:29:12;;;;;;;11.45;7.57;;;;;;;22.46;52.27;102075.22;4978062;28;20141;-37
2023/09/27 00:31:39;;;;;;;11.75;7.55;;;;;;;22.44;52.36;102063.75;4982685;28;20133;-37
2023/09/27 00:34:05;;;;;;;11.73;7.65;;;;;;;22.44;52.15;102069.13;4985213;28;20367;-35
2023/09/27 00:36:33;;;;;;;11.35;7.63;;;;;;;22.42;52.51;102070.13;4979958;28;20043;-36
2023/09/27 00:38:59;;;;;;;11.65;7.78;;;;;;;22.42;52.41;102069.28;4983079;28;20069;-35
2023/09/27 00:41:26;;;;;;;11.35;6.90;;;;;;;22.41;52.17;102070.28;4984231;28;20054;-35
2023/09/27 00:43:53;;;;;;;12.13;7.80;;;;;;;22.41;52.32;102070.28;4981019;28;20092;-35
2023/09/27 00:46:20;;;;;;;10.48;7.45;;;;;;;22.40;52.48;102063.19;4981450;28;20050;-36
2023/09/27 00:48:47;;;;;;;11.35;7.50;;;;;;;22.38;52.42;102067.88;4979546;28;20051;-35
2023/09/27 00:51:14;;;;;;;10.52;7.32;;;;;;;22.37;52.57;102064.34;4983485;28;20108;-36
2023/09/27 00:53:42;;;;;;;11.35;7.60;;;;;;;22.37;52.25;102060.78;4986279;28;20439;-36
2023/09/27 00:56:09;;;;;;;11.18;7.22;;;;;;;22.35;52.37;102060.06;4983407;28;20094;-36
2023/09/27 00:58:37;;;;;;;10.48;7.05;;;;;;;22.35;52.58;102066.34;4981385;28;20633;-34
2023/09/27 01:01:04;;;;;;;9.85;6.63;;;;;;;22.35;52.14;102071.75;4983092;28;20145;-36
2023/09/27 01:03:32;;;;;;;10.00;6.53;;;;;;;22.33;52.83;102065.63;4984518;28;20324;-34
2023/09/27 01:05:59;;;;;;;10.48;7.00;;;;;;;22.34;52.42;102063.78;4980013;28;20050;-34
2023/09/27 01:08:25;;;;;;;10.85;6.97;;;;;;;22.32;52.56;102053.16;4979913;28;20050;-35
2023/09/27 01:10:52;;;;;;;9.75;6.60;;;;;;;22.32;52.45;102049.59;5020113;28;20046;-37
2023/09/27 01:13:19;;;;;;;10.57;7.15;;;;;;;22.31;52.56;102053.28;4988770;28;20142;-35
2023/09/27 01:15:46;;;;;;;9.40;6.40;;;;;;;22.31;52.86;102064.09;4984775;28;20674;-36
2023/09/27 01:18:12;;;;;;;9.80;6.55;;;;;;;22.30;52.59;102059.69;4986105;28;20051;-34
2023/09/27 01:20:39;;;;;;;9.43;6.53;;;;;;;22.29;52.79;102056.16;4980350;28;20057;-40
2023/09/27 01:23:06;;;;;;;10.27;6.30;;;;;;;22.30;52.56;102054.28;4978799;28;20453;-39
2023/09/27 01:25:38;;;;;;;8.20;5.60;;;;;;;22.29;52.45;102055.28;4986100;28;20069;-39
2023/09/27 01:28:08;;;;;;;9.20;6.43;;;;;;;22.27;52.71;102051.88;4989097;28;20054;-36
2023/09/27 01:30:36;;;;;;;9.93;6.88;;;;;;;22.27;52.72;102065.38;4980147;28;20105;-35
2023/09/27 01:33:08;;;;;;;8.70;6.07;;;;;;;22.25;52.77;102059.31;4979139;28;20051;-36
2023/09/27 01:35:37;;;;;;;8.93;5.95;;;;;;;22.24;52.71;102061.16;4984305;28;20391;-35
2023/09/27 01:38:05;;;;;;;10.38;6.63;;;;;;;22.24;52.82;102057.63;4985760;28;20054;-36
2023/09/27 01:40:32;;;;;;;9.48;5.72;;;;;;;22.24;52.81;102047.66;4986517;28;20046;-35
2023/09/27 01:43:01;;;;;;;10.15;5.97;;;;;;;22.23;52.60;102036.97;4979182;28;20046;-35
2023/09/27 01:45:29;;;;;;;8.48;5.47;;;;;;;22.22;52.60;102038.00;4980766;28;20112;-36
2023/09/27 01:47:57;;;;;;;9.13;6.05;;;;;;;22.22;52.85;102043.41;4982642;28;20118;-36
2023/09/27 01:50:24;;;;;;;9.70;5.63;;;;;;;22.21;52.94;102045.25;4982592;28;20129;-35
2023/09/27 01:52:52;;;;;;;9.90;6.03;;;;;;;22.20;52.63;102057.06;4979528;28;20049;-34
2023/09/27 01:55:18;;;;;;;8.68;5.43;;;;;;;22.20;52.87;102057.06;4974470;28;20055;-37
2023/09/27 01:57:45;;;;;;;7.47;5.55;;;;;;;22.18;52.54;102057.19;4982979;28;20074;-38
2023/09/27 02:00:14;;;;;;;8.20;5.40;;;;;;;22.17;52.65;102068.16;4981006;28;20347;-37
2023/09/27 02:02:41;;;;;;;9.30;5.93;;;;;;;22.17;53.06;102070.88;4982805;28;20065;-37
2023/09/27 02:05:09;;;;;;;7.68;5.18;;;;;;;22.16;52.86;102071.88;4980067;28;20120;-35
2023/09/27 02:07:39;;;;;;;7.72;5.43;;;;;;;22.15;52.99;102064.75;4981579;28;20489;-35
2023/09/27 02:10:10;;;;;;;8.43;5.82;;;;;;;22.15;52.79;102056.66;4979612;28;20054;-35
2023/09/27 02:12:37;;;;;;;7.78;5.25;;;;;;;22.14;52.96;102058.50;4981638;28;20049;-36
2023/09/27 02:15:08;;;;;;;7.53;5.45;;;;;;;22.13;52.86;102073.00;4983775;28;20121;-36
2023/09/27 02:17:39;;;;;;;7.60;4.82;;;;;;;22.13;52.82;102077.56;4986397;28;20046;-35
2023/09/27 02:20:10;;;;;;;8.10;5.50;;;;;;;22.12;52.64;102084.78;4984884;28;20516;-34
2023/09/27 02:22:38;;;;;;;8.63;5.40;;;;;;;22.12;53.10;102079.38;4984323;28;20046;-36
2023/09/27 02:25:11;;;;;;;6.45;4.57;;;;;;;22.11;52.71;102077.69;4985229;28;20105;-35
2023/09/27 02:27:39;;;;;;;7.90;5.35;;;;;;;22.11;52.85;102083.09;4984921;28;20050;-35
2023/09/27 02:30:11;;;;;;;8.07;5.63;;;;;;;22.11;52.62;102080.41;4985448;28;20050;-36
2023/09/27 02:32:40;;;;;;;7.82;5.05;;;;;;;22.10;52.85;102078.69;4980939;28;20082;-35
2023/09/27 02:35:11;;;;;;;6.80;4.45;;;;;;;22.10;53.10;102072.44;4984611;28;20461;-36
2023/09/27 02:37:39;;;;;;;5.88;4.45;;;;;;;22.09;52.96;102070.75;4986225;28;20050;-36
2023/09/27 02:40:11;;;;;;;7.03;4.93;;;;;;;22.08;52.85;102064.50;4990115;28;20125;-36
2023/09/27 02:42:43;;;;;;;6.97;5.03;;;;;;;22.07;52.92;102070.91;4984566;28;20050;-35
2023/09/27 02:45:12;;;;;;;7.78;4.82;;;;;;;22.08;53.08;102075.28;4982957;28;20046;-36
2023/09/27 02:47:40;;;;;;;6.10;4.50;;;;;;;22.06;52.79;102079.97;4989499;28;20050;-36
2023/09/27 02:50:10;;;;;;;7.18;4.32;;;;;;;22.06;52.82;102077.28;4991773;28;20050;-36
2023/09/27 02:52:38;;;;;;;6.63;4.28;;;;;;;22.05;52.99;102077.44;4987199;28;20047;-35
2023/09/27 02:55:11;;;;;;;7.32;4.82;;;;;;;22.03;53.16;102077.59;4991190;28;20145;-35
2023/09/27 02:57:38;;;;;;;7.18;4.72;;;;;;;22.03;52.92;102077.59;4979136;28;20042;-35
2023/09/27 03:00:06;;;;;;;8.68;5.18;;;;;;;22.02;53.00;102081.28;4983038;28;20050;-35
2023/09/27 03:02:34;;;;;;;5.65;4.30;;;;;;;22.02;53.06;102086.69;4983587;28;20043;-34
2023/09/27 03:05:04;;;;;;;6.47;4.35;;;;;;;22.02;53.01;102097.47;4985878;28;20042;-35
2023/09/27 03:07:33;;;;;;;6.88;4.70;;;;;;;22.02;53.04;102107.44;4984070;28;20046;-36
2023/09/27 03:10:00;;;;;;;6.13;3.97;;;;;;;22.00;52.95;102093.25;4987777;28;20053;-36
2023/09/27 03:12:28;;;;;;;6.05;4.05;;;;;;;21.99;52.92;102096.91;4982108;28;20101;-36
2023/09/27 03:14:54;;;;;;;6.20;4.22;;;;;;;21.99;53.08;102092.41;4987429;28;20090;-36
2023/09/27 03:17:21;;;;;;;6.22;4.22;;;;;;;21.98;53.39;102087.97;4987408;28;20135;-39
2023/09/27 03:19:47;;;;;;;7.50;4.32;;;;;;;21.97;53.21;102080.88;4987875;28;20430;-35
2023/09/27 03:22:14;;;;;;;6.13;4.05;;;;;;;21.96;53.30;102071.09;4985961;28;20134;-36
2023/09/27 03:24:41;;;;;;;7.55;4.30;;;;;;;21.97;53.06;102070.09;4991030;28;20133;-35
2023/09/27 03:27:08;;;;;;;5.28;3.78;;;;;;;21.96;52.96;102065.69;4983942;28;20058;-36
2023/09/27 03:29:35;;;;;;;6.78;3.90;;;;;;;21.94;53.16;102071.22;4983607;28;20128;-36
2023/09/27 03:32:02;;;;;;;5.18;3.80;;;;;;;21.94;53.02;102073.06;4982400;28;20055;-37
2023/09/27 03:34:31;;;;;;;5.97;4.07;;;;;;;21.93;52.97;102071.38;4984017;28;20054;-37
2023/09/27 03:36:58;;;;;;;5.47;4.38;;;;;;;21.92;53.17;102072.41;4986882;28;20163;-37
2023/09/27 03:39:28;;;;;;;6.28;4.40;;;;;;;21.92;53.03;102067.00;4985157;28;20050;-36
2023/09/27 03:41:56;;;;;;;6.47;4.05;;;;;;;21.92;52.99;102067.84;4985968;28;20073;-36
2023/09/27 03:44:23;;;;;;;5.65;3.90;;;;;;;21.92;53.07;102075.09;4983272;28;20047;-36
2023/09/27 03:46:50;;;;;;;6.18;3.78;;;;;;;21.92;53.22;102091.28;4980989;28;20069;-36
2023/09/27 03:49:17;;;;;;;5.55;3.55;;;;;;;21.91;53.20;102095.84;4981076;28;20113;-35
2023/09/27 03:51:44;;;;;;;5.57;4.00;;;;;;;21.89;53.42;102097.81;4986217;28;20050;-36
2023/09/27 03:54:10;;;;;;;5.97;3.70;;;;;;;21.90;53.32;102101.38;4981245;28;20054;-36
2023/09/27 03:56:37;;;;;;;8.45;3.90;;;;;;;21.89;53.18;102096.97;4988946;28;20073;-36
2023/09/27 03:59:03;;;;;;;5.18;3.47;;;;;;;21.89;53.26;102096.97;4987415;28;20058;-36
2023/09/27 04:01:31;;;;;;;7.75;3.47;;;;;;;21.88;53.05;102100.69;4980803;28;20110;-36
2023/09/27 04:03:58;;;;;;;5.68;3.97;;;;;;;21.88;53.19;102101.53;4983507;28;20045;-35
2023/09/27 04:06:25;;;;;;;5.90;4.00;;;;;;;21.88;53.07;102106.09;4981254;28;20306;-36
2023/09/27 04:08:52;;;;;;;5.90;3.58;;;;;;;21.86;52.98;102098.09;4983136;28;20482;-35
2023/09/27 04:11:18;;;;;;;5.60;3.80;;;;;;;21.85;52.94;102101.81;4981815;28;20047;-36
2023/09/27 04:13:45;;;;;;;7.35;3.97;;;;;;;21.85;53.42;102098.28;4982002;28;20050;-36
2023/09/27 04:16:12;;;;;;;5.13;3.65;;;;;;;21.84;53.27;102094.72;4984758;28;20077;-36
2023/09/27 04:18:38;;;;;;;5.60;3.42;;;;;;;21.84;53.17;102092.03;4980419;28;20535;-36
2023/09/27 04:21:08;;;;;;;6.88;3.60;;;;;;;21.84;52.98;102091.19;4986353;28;20057;-36
2023/09/27 04:23:36;;;;;;;4.75;3.50;;;;;;;21.84;53.28;102107.38;4985448;28;20358;-36
2023/09/27 04:26:05;;;;;;;5.55;3.70;;;;;;;21.83;53.18;102102.94;4984048;28;20169;-39
2023/09/27 04:28:32;;;;;;;4.75;3.22;;;;;;;21.83;53.04;102094.84;4984906;28;20050;-39
2023/09/27 04:31:00;;;;;;;6.20;3.60;;;;;;;21.82;53.42;102095.88;4986543;28;20778;-39
2023/09/27 04:33:26;;;;;;;4.00;3.25;;;;;;;21.81;53.05;102099.56;4981975;28;20046;-35
2023/09/27 04:35:53;;;;;;;5.80;3.63;;;;;;;21.81;53.14;102095.00;4980593;28;20058;-40
2023/09/27 04:38:20;;;;;;;5.18;3.40;;;;;;;21.81;52.98;102096.88;4978343;28;20051;-35
2023/09/27 04:40:46;;;;;;;4.38;3.28;;;;;;;21.80;53.29;102081.69;4981268;28;20548;-36
2023/09/27 04:43:13;;;;;;;4.72;3.35;;;;;;;21.79;53.35;102083.53;4981526;28;20059;-35
2023/09/27 04:45:40;;;;;;;5.30;3.42;;;;;;;21.79;53.21;102077.25;4985756;28;20102;-35
2023/09/27 04:48:06;;;;;;;8.68;4.10;;;;;;;21.79;53.02;102091.63;4981931;28;20046;-36
2023/09/27 04:50:34;;;;;;;7.95;3.85;;;;;;;21.78;53.15;102080.97;4983742;28;20073;-36
2023/09/27 04:53:01;;;;;;;5.35;3.55;;;;;;;21.78;53.26;102062.91;4984049;28;20048;-35
2023/09/27 04:55:28;;;;;;;5.70;4.03;;;;;;;21.78;53.18;102070.16;4979962;28;20054;-37
2023/09/27 04:57:54;;;;;;;7.15;4.22;;;;;;;21.77;53.53;102065.78;4983787;28;20046;-35
2023/09/27 05:00:22;;;;;;;7.50;3.70;;;;;;;21.77;53.51;102058.53;4982554;28;20049;-35
2023/09/27 05:02:51;;;;;;;6.53;4.05;;;;;;;21.77;53.16;102060.38;4982603;28;20045;-36
2023/09/27 05:05:18;;;;;;;10.02;4.38;;;;;;;21.76;53.20;102061.38;4984871;28;20077;-36
2023/09/27 05:07:45;;;;;;;7.38;4.13;;;;;;;21.76;53.39;102069.47;4980716;28;20050;-36
2023/09/27 05:10:12;;;;;;;5.13;3.40;;;;;;;21.75;53.41;102067.75;4979158;28;20102;-36
2023/09/27 05:12:39;;;;;;;5.30;3.83;;;;;;;21.75;53.22;102065.94;4981441;28;20047;-35
2023/09/27 05:15:08;;;;;;;6.05;3.80;;;;;;;21.75;53.39;102062.38;4982775;28;20050;-36
2023/09/27 05:17:35;;;;;;;7.32;4.28;;;;;;;21.75;53.49;102056.97;4978653;28;20141;-36
2023/09/27 05:20:09;;;;;;;6.82;4.00;;;;;;;21.74;53.06;102055.28;4982004;28;20332;-36
2023/09/27 05:22:40;;;;;;;6.90;4.38;;;;;;;21.73;53.13;102057.13;4981842;28;20403;-35
2023/09/27 05:25:08;;;;;;;4.68;3.38;;;;;;;21.73;53.17;102058.97;4986500;28;20062;-36
2023/09/27 05:27:34;;;;;;;7.63;4.32;;;;;;;21.74;53.50;102057.97;4979013;28;20078;-35
2023/09/27 05:30:01;;;;;;;7.72;3.83;;;;;;;21.73;53.08;102051.72;4983564;28;20097;-35
2023/09/27 05:32:28;;;;;;;6.43;4.25;;;;;;;21.71;53.40;102045.66;4982054;28;20058;-37
2023/09/27 05:34:54;;;;;;;7.07;4.00;;;;;;;21.72;53.40;102059.97;4976889;28;20078;-37
2023/09/27 05:37:21;;;;;;;5.90;3.70;;;;;;;21.71;53.12;102059.13;4980512;28;20606;-35
2023/09/27 05:39:48;;;;;;;7.88;4.00;;;;;;;21.71;53.26;102055.56;4978448;28;20057;-36
2023/09/27 05:42:14;;;;;;;9.20;4.00;;;;;;;21.71;53.19;102058.25;4977823;28;20105;-36
2023/09/27 05:44:41;;;;;;;7.50;4.07;;;;;;;21.70;53.18;102065.50;4978851;28;20053;-35
2023/09/27 05:47:08;;;;;;;5.18;3.50;;;;;;;21.71;53.46;102074.44;4982213;28;20050;-35
2023/09/27 05:49:34;;;;;;;7.43;4.32;;;;;;;21.69;53.12;102070.06;4980014;28;20153;-35
2023/09/27 05:52:02;;;;;;;9.18;4.78;;;;;;;21.70;53.45;102062.81;4977942;28;20054;-37
2023/09/27 05:54:29;;;;;;;6.45;4.22;;;;;;;21.70;53.18;102054.72;4978365;28;20042;-36
2023/09/27 05:56:55;;;;;;;6.47;4.05;;;;;;;21.71;53.54;102058.25;5011538;28;20510;-35
2023/09/27 05:59:24;;;;;;;6.00;3.85;;;;;;;21.69;53.44;102059.28;4985304;28;20050;-36
2023/09/27 06:01:51;;;;;;;6.82;3.75;;;;;;;21.71;53.36;102060.97;4982623;28;20046;-36
2023/09/27 06:04:19;;;;;;;8.23;4.90;;;;;;;21.69;53.43;102064.66;4977903;28;20485;-35
2023/09/27 06:06:46;;;;;;;5.63;3.35;;;;;;;21.70;53.15;102054.72;4980407;28;20046;-36
2023/09/27 06:09:12;;;;;;;6.72;3.88;;;;;;;21.71;53.16;102066.34;4980169;28;20058;-35
2023/09/27 06:11:39;;;;;;;7.32;4.05;;;;;;;21.72;53.10;102073.47;4988709;28;20085;-36
2023/09/27 06:14:10;;;;;;;6.25;3.72;;;;;;;21.71;53.35;102071.75;4984378;28;20109;-36
2023/09/27 06:16:38;;;;;;;7.32;4.25;;;;;;;21.71;53.24;102083.44;4988669;28;20481;-35
2023/09/27 06:19:06;;;;;;;7.72;4.22;;;;;;;21.72;53.28;102081.56;4984934;28;20118;-38
2023/09/27 06:21:32;;;;;;;6.30;4.03;;;;;;;21.73;53.40;102080.56;4986057;28;20105;-35
2023/09/27 06:23:59;;;;;;;6.82;4.05;;;;;;;21.73;53.27;102067.06;4986848;28;20422;-35
2023/09/27 06:26:26;;;;;;;7.60;4.50;;;;;;;21.74;53.33;102068.75;4986707;28;20392;-36
2023/09/27 06:28:54;;;;;;;5.90;3.83;;;;;;;21.73;53.44;102056.28;4988836;28;20112;-35
2023/09/27 06:31:21;;;;;;;5.95;4.13;;;;;;;21.73;53.18;102059.81;4987965;28;20329;-35
2023/09/27 06:33:49;;;;;;;6.45;4.28;;;;;;;21.74;53.08;102047.19;4987146;28;20057;-35
2023/09/27 06:36:16;;;;;;;8.55;4.65;;;;;;;21.74;53.20;102052.56;4983869;28;20049;-35
2023/09/27 06:38:42;;;;;;;5.68;3.72;;;;;;;21.75;53.18;102057.84;4985799;28;20113;-35
2023/09/27 06:41:10;;;;;;;8.88;4.78;;;;;;;21.75;52.97;102056.97;4988387;28;20055;-35
2023/09/27 06:43:37;;;;;;;5.72;4.03;;;;;;;21.75;53.01;102051.56;4981293;28;20050;-35
2023/09/27 06:46:10;;;;;;;7.00;4.47;;;;;;;21.75;53.11;102063.25;4986117;28;20046;-35
2023/09/27 06:48:37;;;;;;;7.70;4.22;;;;;;;21.76;53.38;102070.34;4986801;28;20385;-34
2023/09/27 06:51:05;;;;;;;6.55;4.20;;;;;;;21.77;52.97;102058.53;4984726;28;20479;-36
2023/09/27 06:53:32;;;;;;;6.65;4.00;;;;;;;21.77;52.84;102045.03;4983313;28;20057;-37
2023/09/27 06:55:59;;;;;;;8.88;4.18;;;;;;;21.77;53.53;102039.63;4983367;28;20046;-36
2023/09/27 06:58:26;;;;;;;7.53;4.25;;;;;;;21.78;53.23;102051.28;4986669;28;20074;-35
2023/09/27 07:00:54;;;;;;;6.30;4.30;;;;;;;21.78;52.96;102062.91;4984903;28;20125;-37
2023/09/27 07:03:24;;;;;;;6.43;4.18;;;;;;;21.78;53.23;102059.38;4981848;28;20039;-37
2023/09/27 07:05:52;;;;;;;6.53;3.92;;;;;;;21.80;53.15;102062.78;4989468;28;20128;-36
2023/09/27 07:08:20;;;;;;;7.03;4.47;;;;;;;21.81;53.15;102065.31;4985669;28;20351;-35
2023/09/27 07:10:47;;;;;;;6.80;4.20;;;;;;;21.81;52.96;102070.72;4983034;28;20070;-37
2023/09/27 07:13:14;;;;;;;7.57;4.22;;;;;;;21.82;52.92;102058.91;5005453;28;20476;-36
2023/09/27 07:15:45;;;;;;;7.13;4.45;;;;;;;21.84;52.94;102077.69;4985243;28;20326;-37
2023/09/27 07:18:12;;;;;;;5.82;3.80;;;;;;;21.85;52.97;102079.38;4978392;28;20070;-36
2023/09/27 07:20:42;;;;;;;7.60;4.47;;;;;;;21.85;52.97;102084.78;4982344;28;20077;-36
2023/09/27 07:23:14;;;;;;;7.13;4.43;;;;;;;21.86;53.14;102103.50;4982599;28;20042;-36
2023/09/27 07:25:44;;;;;;;7.05;4.00;;;;;;;21.89;53.04;102113.16;4979434;28;20058;-36
2023/09/27 07:28:11;;;;;;;6.43;4.05;;;;;;;21.89;53.09;102113.16;4994189;28;20070;-37
2023/09/27 07:30:38;;;;;;;6.45;4.05;;;;;;;21.91;52.80;102109.34;4980801;28;20050;-37
2023/09/27 07:33:11;;;;;;;8.52;4.80;;;;;;;21.91;52.79;102117.44;4986260;28;20093;-36
2023/09/27 07:35:42;;;;;;;6.30;4.22;;;;;;;21.92;52.95;102120.97;4987211;28;20047;-36
2023/09/27 07:38:10;;;;;;;7.22;4.35;;;;;;;21.93;52.74;102128.91;4981988;28;20454;-36
2023/09/27 07:40:38;;;;;;;6.07;3.70;;;;;;;21.95;52.91;102126.09;4978831;28;20058;-36
2023/09/27 07:43:05;;;;;;;7.70;4.22;;;;;;;21.96;52.92;102124.25;4981812;28;20137;-37
2023/09/27 07:45:34;;;;;;;6.25;4.20;;;;;;;21.96;52.80;102126.94;4981749;28;20077;-36
2023/09/27 07:48:02;;;;;;;6.55;4.13;;;;;;;21.96;53.14;102114.28;4976282;28;20043;-37
2023/09/27 07:50:31;;;;;;;6.78;4.05;;;;;;;21.98;52.91;102122.22;4977323;28;20555;-36
2023/09/27 07:52:59;;;;;;;6.55;4.30;;;;;;;21.98;52.82;102112.28;4979995;28;20069;-36
2023/09/27 07:55:26;;;;;;;7.43;4.07;;;;;;;21.99;53.13;102119.41;4978007;28;20069;-36
2023/09/27 07:57:54;;;;;;;7.32;4.10;;;;;;;22.00;53.19;102117.53;4979306;28;20358;-37
2023/09/27 08:00:27;;;;;;;7.00;4.20;;;;;;;22.01;53.04;102125.47;4981652;28;20404;-37
2023/09/27 08:02:55;;;;;;;6.90;4.10;;;;;;;22.03;53.33;102131.59;4977257;28;20138;-36
2023/09/27 08:05:22;;;;;;;5.68;4.20;;;;;;;22.05;52.88;102129.59;4981067;28;20042;-36
2023/09/27 08:07:50;;;;;;;8.13;4.85;;;;;;;22.05;52.43;102134.97;4981840;28;20047;-37
2023/09/27 08:10:18;;;;;;;7.05;3.97;;;;;;;22.07;52.79;102133.00;4986000;28;20062;-35
2023/09/27 08:12:48;;;;;;;8.07;3.90;;;;;;;22.09;53.04;102130.13;4984082;28;20425;-36
2023/09/27 08:15:14;;;;;;;7.18;4.20;;;;;;;22.10;52.74;102131.84;4982059;28;20397;-36
2023/09/27 08:17:42;;;;;;;11.23;5.13;;;;;;;22.10;52.73;102138.06;4979509;28;20065;-35
2023/09/27 08:20:12;;;;;;;7.75;4.60;;;;;;;22.12;52.84;102135.25;4979436;28;20142;-36
2023/09/27 08:22:39;;;;;;;6.97;4.22;;;;;;;22.13;52.84;102137.81;4980839;28;20101;-36
2023/09/27 08:25:09;;;;;;;6.00;4.20;;;;;;;22.14;52.60;102133.25;4979223;28;20042;-35
2023/09/27 08:27:36;;;;;;;7.22;4.60;;;;;;;22.16;52.72;102131.28;4982997;28;20042;-36
2023/09/27 08:30:05;;;;;;;6.22;4.30;;;;;;;22.17;52.88;102130.28;4982040;28;20050;-37
2023/09/27 08:32:34;;;;;;;6.60;4.05;;;;;;;22.17;52.45;102133.81;4976779;28;20054;-36
2023/09/27 08:35:05;;;;;;;8.13;4.97;;;;;;;22.17;52.45;102138.38;4982080;28;21611;-38
2023/09/27 08:37:31;;;;;;;6.90;4.07;;;;;;;22.18;52.64;102123.88;4978993;28;20308;-36
2023/09/27 08:39:58;;;;;;;7.00;4.43;;;;;;;22.20;52.71;102132.69;4981902;28;20101;-37
2023/09/27 08:42:25;;;;;;;5.95;3.92;;;;;;;22.21;52.62;102136.22;4982791;28;20066;-38
2023/09/27 08:44:52;;;;;;;6.90;3.90;;;;;;;22.21;52.60;102128.13;4983578;28;20097;-36
2023/09/27 08:47:20;;;;;;;6.57;4.13;;;;;;;22.22;52.83;102116.31;4978199;28;20110;-36
2023/09/27 08:49:51;;;;;;;6.05;4.10;;;;;;;22.22;52.55;102122.56;4979627;28;20473;-35
2023/09/27 08:52:18;;;;;;;7.43;4.10;;;;;;;22.24;52.53;102120.56;4978803;28;20058;-35
2023/09/27 08:54:44;;;;;;;6.05;3.95;;;;;;;22.25;52.40;102110.63;4981142;28;20046;-37
2023/09/27 08:57:11;;;;;;;6.22;3.90;;;;;;;22.24;52.62;102112.47;4979239;28;20108;-36
2023/09/27 08:59:39;;;;;;;6.07;4.20;;;;;;;22.26;52.64;102104.22;4980374;28;20124;-38
2023/09/27 09:02:06;;;;;;;6.50;3.88;;;;;;;22.26;52.57;102096.94;4979138;28;20059;-37
2023/09/27 09:04:33;;;;;;;5.60;3.63;;;;;;;22.26;52.13;102086.16;4983851;28;20047;-36
2023/09/27 09:07:01;;;;;;;7.15;4.05;;;;;;;22.27;52.40;102084.28;4977344;28;20438;-36
2023/09/27 09:09:30;;;;;;;5.57;3.35;;;;;;;22.27;52.45;102108.59;4979982;28;20057;-35
2023/09/27 09:12:00;;;;;;;5.40;4.10;;;;;;;22.27;52.63;102095.09;4983530;28;20669;-36
2023/09/27 09:14:54;;;;;;;7.82;4.47;;;;;;;22.25;52.45;102070.94;4980328;28;20081;-36
2023/09/27 09:17:34;;;;;;;5.68;4.15;;;;;;;22.28;52.64;102075.22;4980983;28;20137;-36
2023/09/27 09:23:07;;;;;;;4.82;3.60;;;;;;;22.29;52.70;102117.41;4970247;28;20054;-36
2023/09/27 09:25:43;;;;;;;5.85;3.80;;;;;;;22.28;52.87;102113.88;4980935;28;20042;-36
2023/09/27 09:28:12;;;;;;;7.72;3.90;;;;;;;22.29;52.73;102099.34;4982451;28;20137;-37
2023/09/27 09:30:40;;;;;;;8.65;3.67;;;;;;;22.29;52.39;102079.59;4985771;28;20134;-36
2023/09/27 09:33:16;;;;;;;5.38;3.60;;;;;;;22.29;52.66;102076.91;4978741;28;20165;-35
2023/09/27 09:35:43;;;;;;;4.90;3.53;;;;;;;22.31;52.56;102077.59;4985427;28;20098;-36
2023/09/27 09:38:09;;;;;;;6.18;3.85;;;;;;;22.30;52.51;102075.91;4983041;28;20078;-36
2023/09/27 09:41:06;;;;;;;6.05;3.70;;;;;;;22.30;52.83;102098.34;4983034;28;20054;-36
2023/09/27 09:43:36;;;;;;;4.53;3.22;;;;;;;22.33;52.52;102097.22;4981940;28;20097;-37
2023/09/27 09:46:06;;;;;;;6.88;4.00;;;;;;;22.34;52.80;102088.09;4976688;28;20108;-38
2023/09/27 09:48:35;;;;;;;8.07;3.92;;;;;;;22.36;52.52;102078.00;4969788;28;20070;-37
2023/09/27 09:51:03;;;;;;;5.95;3.75;;;;;;;22.35;52.60;102079.84;4972844;28;20050;-37
2023/09/27 09:53:30;;;;;;;6.55;3.30;;;;;;;22.37;52.29;102075.13;4967908;28;20051;-36
2023/09/27 09:56:02;;;;;;;6.85;4.20;;;;;;;22.38;52.67;102074.13;4972788;28;20140;-36
2023/09/27 09:58:54;;;;;;;7.55;4.13;;;;;;;22.38;52.42;102073.28;4973467;28;20057;-36
2023/09/27 10:01:26;;;;;;;6.50;3.42;;;;;;;22.40;52.58;102071.28;4979402;28;20054;-35
2023/09/27 10:03:53;;;;;;;8.35;4.15;;;;;;;22.40;52.54;102066.75;4973991;28;20056;-36
2023/09/27 10:06:21;;;;;;;7.43;3.63;;;;;;;22.42;52.61;102075.53;4973737;28;20240;-37
2023/09/27 10:09:13;;;;;;;6.03;3.95;;;;;;;22.41;52.54;102079.22;4970080;28;20059;-36
2023/09/27 10:11:44;;;;;;;5.50;3.65;;;;;;;22.42;52.74;102072.81;4972470;28;20141;-36
2023/09/27 10:14:14;;;;;;;5.88;3.67;;;;;;;22.44;52.52;102080.78;4971868;28;20043;-36
2023/09/27 10:16:41;;;;;;;7.20;4.07;;;;;;;22.45;52.56;102070.84;4978412;28;20338;-36
2023/09/27 10:19:08;;;;;;;6.18;3.63;;;;;;;22.45;52.78;102077.06;4981515;28;20086;-36
2023/09/27 10:21:34;;;;;;;6.63;3.95;;;;;;;22.46;52.79;102067.97;4981323;28;20078;-37
2023/09/27 10:24:01;;;;;;;6.43;3.92;;;;;;;22.47;52.97;102058.84;4979087;28;20050;-36
2023/09/27 10:26:36;;;;;;;8.30;3.75;;;;;;;22.49;53.02;102050.59;4975208;28;20097;-36
2023/09/27 10:29:16;;;;;;;5.95;3.83;;;;;;;22.49;52.87;102032.53;4977633;28;20426;-36
2023/09/27 10:32:03;;;;;;;6.88;4.22;;;;;;;22.49;53.21;102013.63;4975191;28;20046;-36
2023/09/27 10:34:30;;;;;;;6.95;4.53;;;;;;;22.51;53.05;102016.16;4972148;28;20047;-36
2023/09/27 10:37:02;;;;;;;5.97;3.60;;;;;;;22.53;53.25;102011.47;4972785;28;20140;-35
2023/09/27 10:40:21;;;;;;;9.63;4.63;;;;;;;22.52;53.24;102007.06;4975278;28;20156;-36
2023/09/27 10:42:48;;;;;;;6.50;3.80;;;;;;;22.54;53.08;102016.72;4970248;28;20114;-37
2023/09/27 10:45:16;;;;;;;5.72;4.05;;;;;;;22.53;53.09;101998.81;4973326;28;20129;-36
2023/09/27 10:47:46;;;;;;;7.45;4.40;;;;;;;22.55;53.00;101990.53;4972701;28;20165;-36
2023/09/27 10:50:13;;;;;;;6.43;3.90;;;;;;;22.55;53.23;101987.81;4975158;28;20141;-36
2023/09/27 10:52:40;;;;;;;5.18;3.53;;;;;;;22.55;53.02;101980.59;4970868;28;20343;-36
2023/09/27 10:55:11;;;;;;;8.38;3.95;;;;;;;22.55;53.17;101963.50;4973440;28;20328;-36
2023/09/27 10:57:40;;;;;;;7.05;3.92;;;;;;;22.56;53.00;101970.63;4979225;28;20418;-38
2023/09/27 11:00:11;;;;;;;6.03;3.90;;;;;;;22.57;52.86;101975.88;4975312;28;20046;-36
2023/09/27 11:02:37;;;;;;;7.93;3.42;;;;;;;22.58;53.00;101972.16;4976410;28;20073;-35
2023/09/27 11:05:05;;;;;;;5.25;3.30;;;;;;;22.59;53.28;101981.97;5005432;28;20061;-36
2023/09/27 11:07:46;;;;;;;5.68;3.63;;;;;;;22.61;52.94;101981.81;4974060;28;20513;-35
2023/09/27 11:10:30;;;;;;;8.75;3.38;;;;;;;22.61;53.30;101962.91;4980716;28;20058;-36
2023/09/27 11:13:06;;;;;;;;;;;;;;;22.63;53.17;101967.16;4976460;28;20137;-36
2023/09/27 11:15:33;;;;;;;6.03;3.55;;;;;;;22.67;52.93;101957.72;4979558;28;20008;-36
2023/09/27 11:17:59;;;;;;;6.78;3.50;;;;;;;22.67;53.40;101952.31;4977201;28;20086;-36
2023/09/27 11:20:26;;;;;;;6.80;3.60;;;;;;;22.68;53.27;101942.34;4978031;28;20342;-36
2023/09/27 11:22:58;;;;;;;8.45;4.28;;;;;;;22.69;53.19;101948.59;5012646;28;20069;-37
2023/09/27 11:25:26;;;;;;;5.70;4.20;;;;;;;22.70;53.29;101940.31;4983498;28;20042;-36
2023/09/27 11:27:53;;;;;;;6.35;4.38;;;;;;;22.72;53.07;101943.72;4983931;28;20560;-37
2023/09/27 11:30:30;;;;;;;6.35;4.18;;;;;;;22.74;53.26;101932.75;4986311;28;20054;-36
2023/09/27 11:32:58;;;;;;;8.13;4.20;;;;;;;22.76;52.85;101937.00;4982765;28;20069;-36
2023/09/27 11:35:26;;;;;;;6.28;4.03;;;;;;;22.77;53.06;101924.34;4978059;28;20046;-37